sensor_id;sensor_type;location;lat;lon;timestamp;temperature;humidity
28496;DHT22;15710;51.604;7.316;2022-07-04T00:01:15;14.60;99.90
28496;DHT22;15710;51.604;7.316;2022-07-04T00:03:41;14.50;99.90
28496;DHT22;15710;51.604;7.316;2022-07-04T00:06:07;14.50;99.90
28496;DHT22;15710;51.604;7.316;2022-07-04T00:08:33;14.50;99.90
28496;DHT22;15710;51.604;7.316;2022-07-04T00:10:59;14.50;99.90
28496;DHT22;15710;51.604;7.316;2022-07-04T00:13:26;14.50;99.90
28496;DHT22;15710;51.604;7.316;2022-07-04T00:15:52;14.40;99.90
28496;DHT22;15710;51.604;7.316;2022-07-04T00:18:18;14.40;99.90
28496;DHT22;15710;51.604;7.316;2022-07-04T00:20:44;14.40;99.90
28496;DHT22;15710;51.604;7.316;2022-07-04T00:23:10;14.30;99.90
28496;DHT22;15710;51.604;7.316;2022-07-04T00:25:37;14.30;99.90
28496;DHT22;15710;51.604;7.316;2022-07-04T00:28:03;14.30;99.90
28496;DHT22;15710;51.604;7.316;2022-07-04T00:30:29;14.30;99.90
28496;DHT22;15710;51.604;7.316;2022-07-04T00:32:55;14.30;99.90
28496;DHT22;15710;51.604;7.316;2022-07-04T00:35:21;14.20;99.90
28496;DHT22;15710;51.604;7.316;2022-07-04T00:37:47;14.20;99.90
28496;DHT22;15710;51.604;7.316;2022-07-04T00:40:14;14.20;99.90
28496;DHT22;15710;51.604;7.316;2022-07-04T00:42:40;14.10;99.90
28496;DHT22;15710;51.604;7.316;2022-07-04T00:45:06;14.10;99.90
28496;DHT22;15710;51.604;7.316;2022-07-04T00:47:32;14.10;99.90
28496;DHT22;15710;51.604;7.316;2022-07-04T00:49:58;14.10;99.90
28496;DHT22;15710;51.604;7.316;2022-07-04T00:52:25;14.10;99.90
28496;DHT22;15710;51.604;7.316;2022-07-04T00:54:51;14.00;99.90
28496;DHT22;15710;51.604;7.316;2022-07-04T00:57:17;14.00;99.90
28496;DHT22;15710;51.604;7.316;2022-07-04T00:59:43;14.00;99.90
28496;DHT22;15710;51.604;7.316;2022-07-04T01:02:09;14.00;99.90
28496;DHT22;15710;51.604;7.316;2022-07-04T01:04:35;13.90;99.90
28496;DHT22;15710;51.604;7.316;2022-07-04T01:07:02;13.90;99.90
28496;DHT22;15710;51.604;7.316;2022-07-04T01:09:28;13.90;99.90
28496;DHT22;15710;51.604;7.316;2022-07-04T01:11:54;13.90;99.90
28496;DHT22;15710;51.604;7.316;2022-07-04T01:14:20;13.80;99.90
28496;DHT22;15710;51.604;7.316;2022-07-04T01:16:46;13.80;99.90
28496;DHT22;15710;51.604;7.316;2022-07-04T01:19:12;13.80;99.90
28496;DHT22;15710;51.604;7.316;2022-07-04T01:21:39;13.80;99.90
28496;DHT22;15710;51.604;7.316;2022-07-04T01:24:05;13.80;99.90
28496;DHT22;15710;51.604;7.316;2022-07-04T01:26:31;13.80;99.90
28496;DHT22;15710;51.604;7.316;2022-07-04T01:28:57;13.80;99.90
28496;DHT22;15710;51.604;7.316;2022-07-04T01:31:23;13.80;99.90
28496;DHT22;15710;51.604;7.316;2022-07-04T01:33:49;13.80;99.90
28496;DHT22;15710;51.604;7.316;2022-07-04T01:36:16;13.70;99.90
28496;DHT22;15710;51.604;7.316;2022-07-04T01:38:42;13.70;99.90
28496;DHT22;15710;51.604;7.316;2022-07-04T01:41:08;13.70;99.90
28496;DHT22;15710;51.604;7.316;2022-07-04T01:43:34;13.70;99.90
28496;DHT22;15710;51.604;7.316;2022-07-04T01:46:01;13.60;99.90
28496;DHT22;15710;51.604;7.316;2022-07-04T01:48:27;13.60;99.90
28496;DHT22;15710;51.604;7.316;2022-07-04T01:50:53;13.50;99.90
28496;DHT22;15710;51.604;7.316;2022-07-04T01:53:19;13.50;99.90
28496;DHT22;15710;51.604;7.316;2022-07-04T01:55:45;13.40;99.90
28496;DHT22;15710;51.604;7.316;2022-07-04T01:58:11;13.40;99.90
28496;DHT22;15710;51.604;7.316;2022-07-04T02:00:37;13.40;99.90
28496;DHT22;15710;51.604;7.316;2022-07-04T02:03:22;13.30;99.90
28496;DHT22;15710;51.604;7.316;2022-07-04T02:05:48;13.30;99.90
28496;DHT22;15710;51.604;7.316;2022-07-04T02:08:14;13.30;99.90
28496;DHT22;15710;51.604;7.316;2022-07-04T02:10:40;13.20;99.90
28496;DHT22;15710;51.604;7.316;2022-07-04T02:13:07;13.20;99.90
28496;DHT22;15710;51.604;7.316;2022-07-04T02:15:39;13.10;99.90
28496;DHT22;15710;51.604;7.316;2022-07-04T02:18:09;13.10;99.90
28496;DHT22;15710;51.604;7.316;2022-07-04T02:20:36;13.10;99.90
28496;DHT22;15710;51.604;7.316;2022-07-04T02:23:04;13.10;99.90
28496;DHT22;15710;51.604;7.316;2022-07-04T02:25:30;13.10;99.90
28496;DHT22;15710;51.604;7.316;2022-07-04T02:27:56;13.00;99.90
28496;DHT22;15710;51.604;7.316;2022-07-04T02:30:23;13.00;99.90
28496;DHT22;15710;51.604;7.316;2022-07-04T02:32:50;13.00;99.90
28496;DHT22;15710;51.604;7.316;2022-07-04T02:35:16;13.00;99.90
28496;DHT22;15710;51.604;7.316;2022-07-04T02:37:44;12.90;99.90
28496;DHT22;15710;51.604;7.316;2022-07-04T02:40:10;12.90;99.90
28496;DHT22;15710;51.604;7.316;2022-07-04T02:42:36;12.90;99.90
28496;DHT22;15710;51.604;7.316;2022-07-04T02:45:04;12.90;99.90
28496;DHT22;15710;51.604;7.316;2022-07-04T02:47:30;12.90;99.90
28496;DHT22;15710;51.604;7.316;2022-07-04T02:49:56;12.80;99.90
28496;DHT22;15710;51.604;7.316;2022-07-04T02:52:22;12.80;99.90
28496;DHT22;15710;51.604;7.316;2022-07-04T02:54:48;12.80;99.90
28496;DHT22;15710;51.604;7.316;2022-07-04T02:57:15;12.70;99.90
28496;DHT22;15710;51.604;7.316;2022-07-04T02:59:41;12.80;99.90
28496;DHT22;15710;51.604;7.316;2022-07-04T03:02:07;12.80;99.90
28496;DHT22;15710;51.604;7.316;2022-07-04T03:04:34;12.80;99.90
28496;DHT22;15710;51.604;7.316;2022-07-04T03:07:00;12.80;99.90
28496;DHT22;15710;51.604;7.316;2022-07-04T03:09:26;12.80;99.90
28496;DHT22;15710;51.604;7.316;2022-07-04T03:11:55;12.80;99.90
28496;DHT22;15710;51.604;7.316;2022-07-04T03:14:21;12.80;99.90
28496;DHT22;15710;51.604;7.316;2022-07-04T03:16:47;12.80;99.90
28496;DHT22;15710;51.604;7.316;2022-07-04T03:19:13;12.80;99.90
28496;DHT22;15710;51.604;7.316;2022-07-04T03:21:39;12.80;99.90
28496;DHT22;15710;51.604;7.316;2022-07-04T03:24:05;12.80;99.90
28496;DHT22;15710;51.604;7.316;2022-07-04T03:26:34;12.80;99.90
28496;DHT22;15710;51.604;7.316;2022-07-04T03:29:01;12.80;99.90
28496;DHT22;15710;51.604;7.316;2022-07-04T03:31:28;12.80;99.90
28496;DHT22;15710;51.604;7.316;2022-07-04T03:33:54;12.80;99.90
28496;DHT22;15710;51.604;7.316;2022-07-04T03:36:21;12.80;99.90
28496;DHT22;15710;51.604;7.316;2022-07-04T03:38:47;12.80;99.90
28496;DHT22;15710;51.604;7.316;2022-07-04T03:41:14;12.80;99.90
28496;DHT22;15710;51.604;7.316;2022-07-04T03:43:40;12.90;99.90
28496;DHT22;15710;51.604;7.316;2022-07-04T03:46:06;12.90;99.90
28496;DHT22;15710;51.604;7.316;2022-07-04T03:48:32;12.90;99.90
28496;DHT22;15710;51.604;7.316;2022-07-04T03:50:58;12.90;99.90
28496;DHT22;15710;51.604;7.316;2022-07-04T03:53:24;12.90;99.90
28496;DHT22;15710;51.604;7.316;2022-07-04T03:55:50;13.00;99.90
28496;DHT22;15710;51.604;7.316;2022-07-04T03:58:16;13.00;99.90
28496;DHT22;15710;51.604;7.316;2022-07-04T04:00:43;13.00;99.90
28496;DHT22;15710;51.604;7.316;2022-07-04T04:03:09;13.00;99.90
28496;DHT22;15710;51.604;7.316;2022-07-04T04:05:55;13.00;99.90
28496;DHT22;15710;51.604;7.316;2022-07-04T04:08:21;13.10;99.90
28496;DHT22;15710;51.604;7.316;2022-07-04T04:10:47;13.10;99.90
28496;DHT22;15710;51.604;7.316;2022-07-04T04:13:14;13.20;99.90
28496;DHT22;15710;51.604;7.316;2022-07-04T04:15:40;13.20;99.90
28496;DHT22;15710;51.604;7.316;2022-07-04T04:18:06;13.20;99.90
28496;DHT22;15710;51.604;7.316;2022-07-04T04:20:32;13.30;99.90
28496;DHT22;15710;51.604;7.316;2022-07-04T04:22:58;13.30;99.90
28496;DHT22;15710;51.604;7.316;2022-07-04T04:25:24;13.40;99.90
28496;DHT22;15710;51.604;7.316;2022-07-04T04:27:50;13.40;99.90
28496;DHT22;15710;51.604;7.316;2022-07-04T04:30:17;13.50;99.90
28496;DHT22;15710;51.604;7.316;2022-07-04T04:32:43;13.60;99.90
28496;DHT22;15710;51.604;7.316;2022-07-04T04:35:09;13.60;99.90
28496;DHT22;15710;51.604;7.316;2022-07-04T04:37:35;13.70;99.90
28496;DHT22;15710;51.604;7.316;2022-07-04T04:40:01;13.80;99.90
28496;DHT22;15710;51.604;7.316;2022-07-04T04:42:27;13.80;99.90
28496;DHT22;15710;51.604;7.316;2022-07-04T04:44:53;13.90;99.90
28496;DHT22;15710;51.604;7.316;2022-07-04T04:47:19;13.90;99.90
28496;DHT22;15710;51.604;7.316;2022-07-04T04:49:45;14.00;99.90
28496;DHT22;15710;51.604;7.316;2022-07-04T04:52:11;14.10;99.90
28496;DHT22;15710;51.604;7.316;2022-07-04T04:54:38;14.20;99.90
28496;DHT22;15710;51.604;7.316;2022-07-04T04:57:04;14.30;99.90
28496;DHT22;15710;51.604;7.316;2022-07-04T04:59:30;14.30;99.90
28496;DHT22;15710;51.604;7.316;2022-07-04T05:01:57;14.40;99.90
28496;DHT22;15710;51.604;7.316;2022-07-04T05:04:24;14.60;99.90
28496;DHT22;15710;51.604;7.316;2022-07-04T05:06:51;14.70;99.90
28496;DHT22;15710;51.604;7.316;2022-07-04T05:09:18;14.80;99.90
28496;DHT22;15710;51.604;7.316;2022-07-04T05:11:46;14.90;99.90
28496;DHT22;15710;51.604;7.316;2022-07-04T05:14:12;15.10;99.90
28496;DHT22;15710;51.604;7.316;2022-07-04T05:16:38;15.40;99.90
28496;DHT22;15710;51.604;7.316;2022-07-04T05:19:05;15.60;99.90
28496;DHT22;15710;51.604;7.316;2022-07-04T05:21:31;15.90;99.90
28496;DHT22;15710;51.604;7.316;2022-07-04T05:23:57;16.10;99.90
28496;DHT22;15710;51.604;7.316;2022-07-04T05:26:24;16.40;99.90
28496;DHT22;15710;51.604;7.316;2022-07-04T05:28:50;16.70;99.90
28496;DHT22;15710;51.604;7.316;2022-07-04T05:31:16;17.00;99.90
28496;DHT22;15710;51.604;7.316;2022-07-04T05:33:42;17.30;99.90
28496;DHT22;15710;51.604;7.316;2022-07-04T05:36:08;17.60;99.90
28496;DHT22;15710;51.604;7.316;2022-07-04T05:38:34;17.90;99.90
28496;DHT22;15710;51.604;7.316;2022-07-04T05:41:01;18.00;99.90
28496;DHT22;15710;51.604;7.316;2022-07-04T05:43:27;18.30;99.90
28496;DHT22;15710;51.604;7.316;2022-07-04T05:45:53;18.50;99.90
28496;DHT22;15710;51.604;7.316;2022-07-04T05:48:20;18.80;99.90
28496;DHT22;15710;51.604;7.316;2022-07-04T05:50:46;19.00;99.90
28496;DHT22;15710;51.604;7.316;2022-07-04T05:53:12;19.30;99.90
28496;DHT22;15710;51.604;7.316;2022-07-04T05:55:38;19.30;99.90
28496;DHT22;15710;51.604;7.316;2022-07-04T05:58:04;19.60;99.90
28496;DHT22;15710;51.604;7.316;2022-07-04T06:00:30;19.90;99.90
28496;DHT22;15710;51.604;7.316;2022-07-04T06:02:56;19.90;99.90
28496;DHT22;15710;51.604;7.316;2022-07-04T06:05:22;20.10;99.90
28496;DHT22;15710;51.604;7.316;2022-07-04T06:07:48;20.50;99.90
28496;DHT22;15710;51.604;7.316;2022-07-04T06:10:14;20.60;99.90
28496;DHT22;15710;51.604;7.316;2022-07-04T06:12:41;20.80;99.90
28496;DHT22;15710;51.604;7.316;2022-07-04T06:15:07;20.70;99.90
28496;DHT22;15710;51.604;7.316;2022-07-04T06:17:36;21.10;99.90
28496;DHT22;15710;51.604;7.316;2022-07-04T06:20:03;20.90;99.90
28496;DHT22;15710;51.604;7.316;2022-07-04T06:22:42;21.30;99.90
28496;DHT22;15710;51.604;7.316;2022-07-04T06:25:16;21.50;99.90
28496;DHT22;15710;51.604;7.316;2022-07-04T06:27:44;21.80;99.90
28496;DHT22;15710;51.604;7.316;2022-07-04T06:30:11;21.60;99.90
28496;DHT22;15710;51.604;7.316;2022-07-04T06:32:56;22.10;99.90
28496;DHT22;15710;51.604;7.316;2022-07-04T06:35:25;22.40;99.90
28496;DHT22;15710;51.604;7.316;2022-07-04T06:38:14;22.70;99.90
28496;DHT22;15710;51.604;7.316;2022-07-04T06:40:41;22.90;99.90
28496;DHT22;15710;51.604;7.316;2022-07-04T06:43:08;23.30;99.90
28496;DHT22;15710;51.604;7.316;2022-07-04T06:45:34;23.00;99.90
28496;DHT22;15710;51.604;7.316;2022-07-04T06:48:02;23.50;99.90
28496;DHT22;15710;51.604;7.316;2022-07-04T06:50:28;23.70;99.90
28496;DHT22;15710;51.604;7.316;2022-07-04T06:52:54;24.20;99.90
28496;DHT22;15710;51.604;7.316;2022-07-04T06:55:20;24.60;99.90
28496;DHT22;15710;51.604;7.316;2022-07-04T06:57:46;24.60;99.90
28496;DHT22;15710;51.604;7.316;2022-07-04T07:00:12;24.80;99.90
28496;DHT22;15710;51.604;7.316;2022-07-04T07:02:39;24.90;99.90
28496;DHT22;15710;51.604;7.316;2022-07-04T07:05:05;25.20;99.90
28496;DHT22;15710;51.604;7.316;2022-07-04T07:07:31;25.30;99.90
28496;DHT22;15710;51.604;7.316;2022-07-04T07:09:58;25.70;98.40
28496;DHT22;15710;51.604;7.316;2022-07-04T07:12:24;25.90;96.70
28496;DHT22;15710;51.604;7.316;2022-07-04T07:14:50;26.00;96.30
28496;DHT22;15710;51.604;7.316;2022-07-04T07:17:16;26.20;94.10
28496;DHT22;15710;51.604;7.316;2022-07-04T07:19:43;26.30;92.30
28496;DHT22;15710;51.604;7.316;2022-07-04T07:22:11;26.50;90.40
28496;DHT22;15710;51.604;7.316;2022-07-04T07:24:37;27.00;87.20
28496;DHT22;15710;51.604;7.316;2022-07-04T07:27:04;27.00;85.60
28496;DHT22;15710;51.604;7.316;2022-07-04T07:29:31;25.80;87.00
28496;DHT22;15710;51.604;7.316;2022-07-04T07:31:58;26.40;86.10
28496;DHT22;15710;51.604;7.316;2022-07-04T07:34:24;26.90;82.00
28496;DHT22;15710;51.604;7.316;2022-07-04T07:36:50;27.80;80.90
28496;DHT22;15710;51.604;7.316;2022-07-04T07:39:17;27.40;75.70
28496;DHT22;15710;51.604;7.316;2022-07-04T07:41:43;26.90;74.90
28496;DHT22;15710;51.604;7.316;2022-07-04T07:44:09;27.40;74.40
28496;DHT22;15710;51.604;7.316;2022-07-04T07:46:35;28.00;72.30
28496;DHT22;15710;51.604;7.316;2022-07-04T07:49:01;28.40;70.70
28496;DHT22;15710;51.604;7.316;2022-07-04T07:51:27;28.00;65.90
28496;DHT22;15710;51.604;7.316;2022-07-04T07:53:53;29.10;67.40
28496;DHT22;15710;51.604;7.316;2022-07-04T07:56:19;29.80;63.60
28496;DHT22;15710;51.604;7.316;2022-07-04T07:58:45;30.50;59.70
28496;DHT22;15710;51.604;7.316;2022-07-04T08:01:12;30.80;58.10
28496;DHT22;15710;51.604;7.316;2022-07-04T08:03:38;31.80;57.40
28496;DHT22;15710;51.604;7.316;2022-07-04T08:06:22;32.00;54.10
28496;DHT22;15710;51.604;7.316;2022-07-04T08:08:48;32.90;52.20
28496;DHT22;15710;51.604;7.316;2022-07-04T08:11:14;33.00;49.90
28496;DHT22;15710;51.604;7.316;2022-07-04T08:13:40;33.80;47.70
28496;DHT22;15710;51.604;7.316;2022-07-04T08:16:07;33.70;46.50
28496;DHT22;15710;51.604;7.316;2022-07-04T08:18:33;34.40;46.00
28496;DHT22;15710;51.604;7.316;2022-07-04T08:21:00;34.00;44.40
28496;DHT22;15710;51.604;7.316;2022-07-04T08:23:27;35.00;43.60
28496;DHT22;15710;51.604;7.316;2022-07-04T08:25:54;35.40;42.60
28496;DHT22;15710;51.604;7.316;2022-07-04T08:28:20;35.80;40.50
28496;DHT22;15710;51.604;7.316;2022-07-04T08:30:46;36.60;39.90
28496;DHT22;15710;51.604;7.316;2022-07-04T08:33:12;36.40;39.90
28496;DHT22;15710;51.604;7.316;2022-07-04T08:35:38;36.70;38.00
28496;DHT22;15710;51.604;7.316;2022-07-04T08:38:04;36.60;37.60
28496;DHT22;15710;51.604;7.316;2022-07-04T08:40:31;36.20;36.60
28496;DHT22;15710;51.604;7.316;2022-07-04T08:42:57;36.40;39.00
28496;DHT22;15710;51.604;7.316;2022-07-04T08:45:33;37.00;37.40
28496;DHT22;15710;51.604;7.316;2022-07-04T08:48:01;38.00;36.60
28496;DHT22;15710;51.604;7.316;2022-07-04T08:50:37;38.80;35.10
28496;DHT22;15710;51.604;7.316;2022-07-04T08:53:11;39.10;33.40
28496;DHT22;15710;51.604;7.316;2022-07-04T08:55:39;39.20;33.00
28496;DHT22;15710;51.604;7.316;2022-07-04T08:58:25;39.00;32.70
28496;DHT22;15710;51.604;7.316;2022-07-04T09:00:58;39.40;32.50
28496;DHT22;15710;51.604;7.316;2022-07-04T09:03:26;40.00;32.40
28496;DHT22;15710;51.604;7.316;2022-07-04T09:05:53;40.10;30.80
28496;DHT22;15710;51.604;7.316;2022-07-04T09:08:19;39.70;30.90
28496;DHT22;15710;51.604;7.316;2022-07-04T09:10:47;40.10;30.70
28496;DHT22;15710;51.604;7.316;2022-07-04T09:13:13;40.50;31.20
28496;DHT22;15710;51.604;7.316;2022-07-04T09:15:48;41.20;30.00
28496;DHT22;15710;51.604;7.316;2022-07-04T09:18:33;41.00;29.90
28496;DHT22;15710;51.604;7.316;2022-07-04T09:21:05;40.60;29.40
28496;DHT22;15710;51.604;7.316;2022-07-04T09:23:34;41.00;29.80
28496;DHT22;15710;51.604;7.316;2022-07-04T09:28:53;40.20;29.60
28496;DHT22;15710;51.604;7.316;2022-07-04T09:31:22;40.00;29.80
28496;DHT22;15710;51.604;7.316;2022-07-04T09:36:19;40.00;30.10
28496;DHT22;15710;51.604;7.316;2022-07-04T09:44:19;40.40;28.90
28496;DHT22;15710;51.604;7.316;2022-07-04T09:46:45;41.10;29.10
28496;DHT22;15710;51.604;7.316;2022-07-04T09:49:11;39.90;28.50
28496;DHT22;15710;51.604;7.316;2022-07-04T09:51:47;38.80;30.40
28496;DHT22;15710;51.604;7.316;2022-07-04T09:54:21;39.70;30.00
28496;DHT22;15710;51.604;7.316;2022-07-04T09:56:56;39.70;30.00
28496;DHT22;15710;51.604;7.316;2022-07-04T09:59:24;40.00;29.20
28496;DHT22;15710;51.604;7.316;2022-07-04T10:01:51;39.90;29.00
28496;DHT22;15710;51.604;7.316;2022-07-04T10:04:17;40.70;28.80
28496;DHT22;15710;51.604;7.316;2022-07-04T10:06:44;39.10;29.70
28496;DHT22;15710;51.604;7.316;2022-07-04T10:09:16;40.10;29.40
28496;DHT22;15710;51.604;7.316;2022-07-04T10:11:44;40.70;28.40
28496;DHT22;15710;51.604;7.316;2022-07-04T10:14:12;41.30;28.20
28496;DHT22;15710;51.604;7.316;2022-07-04T10:16:39;40.90;27.40
28496;DHT22;15710;51.604;7.316;2022-07-04T10:19:07;41.60;28.50
28496;DHT22;15710;51.604;7.316;2022-07-04T10:21:34;43.00;27.80
28496;DHT22;15710;51.604;7.316;2022-07-04T10:24:01;43.60;27.90
28496;DHT22;15710;51.604;7.316;2022-07-04T10:26:29;43.20;26.10
28496;DHT22;15710;51.604;7.316;2022-07-04T10:28:56;42.60;25.90
28496;DHT22;15710;51.604;7.316;2022-07-04T10:31:24;40.40;28.10
28496;DHT22;15710;51.604;7.316;2022-07-04T10:33:51;42.50;27.80
28496;DHT22;15710;51.604;7.316;2022-07-04T10:36:22;43.70;26.90
28496;DHT22;15710;51.604;7.316;2022-07-04T10:39:02;43.60;26.80
28496;DHT22;15710;51.604;7.316;2022-07-04T10:41:30;44.20;26.50
28496;DHT22;15710;51.604;7.316;2022-07-04T10:46:28;44.70;25.70
28496;DHT22;15710;51.604;7.316;2022-07-04T10:51:48;45.00;25.60
28496;DHT22;15710;51.604;7.316;2022-07-04T10:54:22;44.50;25.70
28496;DHT22;15710;51.604;7.316;2022-07-04T10:59:31;42.70;25.90
28496;DHT22;15710;51.604;7.316;2022-07-04T11:17:56;41.50;27.20
28496;DHT22;15710;51.604;7.316;2022-07-04T11:20:23;39.40;28.60
28496;DHT22;15710;51.604;7.316;2022-07-04T11:22:50;39.80;27.50
28496;DHT22;15710;51.604;7.316;2022-07-04T11:25:16;37.30;29.60
28496;DHT22;15710;51.604;7.316;2022-07-04T11:27:42;37.10;30.10
28496;DHT22;15710;51.604;7.316;2022-07-04T11:30:10;36.30;30.60
28496;DHT22;15710;51.604;7.316;2022-07-04T11:32:38;37.50;30.70
28496;DHT22;15710;51.604;7.316;2022-07-04T11:35:05;37.50;29.90
28496;DHT22;15710;51.604;7.316;2022-07-04T11:37:33;36.20;31.20
28496;DHT22;15710;51.604;7.316;2022-07-04T11:39:59;34.90;32.10
28496;DHT22;15710;51.604;7.316;2022-07-04T11:43:04;36.30;31.40
28496;DHT22;15710;51.604;7.316;2022-07-04T11:45:50;36.60;31.20
28496;DHT22;15710;51.604;7.316;2022-07-04T11:48:23;38.50;29.30
28496;DHT22;15710;51.604;7.316;2022-07-04T11:50:49;39.10;28.70
28496;DHT22;15710;51.604;7.316;2022-07-04T11:53:17;39.10;27.60
28496;DHT22;15710;51.604;7.316;2022-07-04T11:55:53;41.10;28.40
28496;DHT22;15710;51.604;7.316;2022-07-04T11:58:22;42.20;27.30
28496;DHT22;15710;51.604;7.316;2022-07-04T12:00:48;43.50;26.20
28496;DHT22;15710;51.604;7.316;2022-07-04T12:03:14;41.30;26.20
28496;DHT22;15710;51.604;7.316;2022-07-04T12:05:41;40.30;27.10
28496;DHT22;15710;51.604;7.316;2022-07-04T12:08:10;38.50;27.90
28496;DHT22;15710;51.604;7.316;2022-07-04T12:10:36;37.30;29.10
28496;DHT22;15710;51.604;7.316;2022-07-04T12:13:05;35.90;30.20
28496;DHT22;15710;51.604;7.316;2022-07-04T12:15:47;34.70;31.30
28496;DHT22;15710;51.604;7.316;2022-07-04T12:20:41;33.10;33.90
28496;DHT22;15710;51.604;7.316;2022-07-04T12:23:09;32.60;34.70
28496;DHT22;15710;51.604;7.316;2022-07-04T12:25:38;32.20;35.20
28496;DHT22;15710;51.604;7.316;2022-07-04T12:28:14;31.80;36.40
28496;DHT22;15710;51.604;7.316;2022-07-04T12:30:55;33.30;36.10
28496;DHT22;15710;51.604;7.316;2022-07-04T12:33:24;35.10;33.90
28496;DHT22;15710;51.604;7.316;2022-07-04T12:35:57;35.90;32.20
28496;DHT22;15710;51.604;7.316;2022-07-04T12:41:02;38.40;30.30
28496;DHT22;15710;51.604;7.316;2022-07-04T12:46:15;36.90;29.10
28496;DHT22;15710;51.604;7.316;2022-07-04T12:48:52;37.80;29.80
28496;DHT22;15710;51.604;7.316;2022-07-04T12:51:24;36.30;30.30
28496;DHT22;15710;51.604;7.316;2022-07-04T12:53:52;35.20;31.40
28496;DHT22;15710;51.604;7.316;2022-07-04T12:56:35;33.70;32.90
28496;DHT22;15710;51.604;7.316;2022-07-04T12:59:09;32.60;34.30
28496;DHT22;15710;51.604;7.316;2022-07-04T13:01:37;31.90;35.80
28496;DHT22;15710;51.604;7.316;2022-07-04T13:04:04;32.70;36.10
28496;DHT22;15710;51.604;7.316;2022-07-04T13:06:30;32.20;36.30
28496;DHT22;15710;51.604;7.316;2022-07-04T13:08:57;33.60;36.00
28496;DHT22;15710;51.604;7.316;2022-07-04T13:11:24;35.20;34.20
28496;DHT22;15710;51.604;7.316;2022-07-04T13:14:09;36.40;32.20
28496;DHT22;15710;51.604;7.316;2022-07-04T13:16:35;36.80;31.10
28496;DHT22;15710;51.604;7.316;2022-07-04T13:19:01;37.50;29.90
28496;DHT22;15710;51.604;7.316;2022-07-04T13:21:27;38.10;29.30
28496;DHT22;15710;51.604;7.316;2022-07-04T13:23:53;38.60;29.20
28496;DHT22;15710;51.604;7.316;2022-07-04T13:26:19;39.10;28.70
28496;DHT22;15710;51.604;7.316;2022-07-04T13:28:46;38.00;29.40
28496;DHT22;15710;51.604;7.316;2022-07-04T13:31:12;37.10;29.90
28496;DHT22;15710;51.604;7.316;2022-07-04T13:33:38;35.40;31.20
28496;DHT22;15710;51.604;7.316;2022-07-04T13:36:04;34.30;32.40
28496;DHT22;15710;51.604;7.316;2022-07-04T13:38:30;34.40;33.20
28496;DHT22;15710;51.604;7.316;2022-07-04T13:40:56;34.90;32.70
28496;DHT22;15710;51.604;7.316;2022-07-04T13:43:24;35.90;31.80
28496;DHT22;15710;51.604;7.316;2022-07-04T13:45:50;36.30;30.00
28496;DHT22;15710;51.604;7.316;2022-07-04T13:48:16;34.70;30.50
28496;DHT22;15710;51.604;7.316;2022-07-04T13:50:42;33.50;32.30
28496;DHT22;15710;51.604;7.316;2022-07-04T13:53:09;32.80;33.60
28496;DHT22;15710;51.604;7.316;2022-07-04T13:55:36;32.00;34.40
28496;DHT22;15710;51.604;7.316;2022-07-04T13:58:05;31.50;34.90
28496;DHT22;15710;51.604;7.316;2022-07-04T14:00:32;31.10;36.20
28496;DHT22;15710;51.604;7.316;2022-07-04T14:02:59;30.60;36.40
28496;DHT22;15710;51.604;7.316;2022-07-04T14:05:25;31.70;37.20
28496;DHT22;15710;51.604;7.316;2022-07-04T14:07:52;31.80;35.90
28496;DHT22;15710;51.604;7.316;2022-07-04T14:10:18;32.00;36.70
28496;DHT22;15710;51.604;7.316;2022-07-04T14:12:44;32.60;36.10
28496;DHT22;15710;51.604;7.316;2022-07-04T14:15:10;33.80;34.50
28496;DHT22;15710;51.604;7.316;2022-07-04T14:17:37;34.50;33.00
28496;DHT22;15710;51.604;7.316;2022-07-04T14:20:04;33.80;32.00
28496;DHT22;15710;51.604;7.316;2022-07-04T14:22:32;34.50;31.90
28496;DHT22;15710;51.604;7.316;2022-07-04T14:24:58;34.50;31.90
28496;DHT22;15710;51.604;7.316;2022-07-04T14:27:24;34.40;31.70
28496;DHT22;15710;51.604;7.316;2022-07-04T14:29:50;34.40;32.00
28496;DHT22;15710;51.604;7.316;2022-07-04T14:32:16;33.90;33.10
28496;DHT22;15710;51.604;7.316;2022-07-04T14:34:42;33.80;34.30
28496;DHT22;15710;51.604;7.316;2022-07-04T14:37:09;33.50;33.90
28496;DHT22;15710;51.604;7.316;2022-07-04T14:39:35;32.90;33.80
28496;DHT22;15710;51.604;7.316;2022-07-04T14:42:01;31.50;35.70
28496;DHT22;15710;51.604;7.316;2022-07-04T14:44:28;31.20;37.00
28496;DHT22;15710;51.604;7.316;2022-07-04T14:46:54;31.00;38.10
28496;DHT22;15710;51.604;7.316;2022-07-04T14:49:20;30.60;37.80
28496;DHT22;15710;51.604;7.316;2022-07-04T14:51:46;30.20;38.00
28496;DHT22;15710;51.604;7.316;2022-07-04T14:54:12;29.70;39.30
28496;DHT22;15710;51.604;7.316;2022-07-04T14:56:39;29.50;40.50
28496;DHT22;15710;51.604;7.316;2022-07-04T14:59:06;29.40;40.50
28496;DHT22;15710;51.604;7.316;2022-07-04T15:01:32;29.20;40.80
28496;DHT22;15710;51.604;7.316;2022-07-04T15:03:58;29.40;41.00
28496;DHT22;15710;51.604;7.316;2022-07-04T15:06:24;29.40;41.10
28496;DHT22;15710;51.604;7.316;2022-07-04T15:08:50;29.20;42.00
28496;DHT22;15710;51.604;7.316;2022-07-04T15:11:17;29.00;42.10
28496;DHT22;15710;51.604;7.316;2022-07-04T15:13:43;29.20;42.50
28496;DHT22;15710;51.604;7.316;2022-07-04T15:16:09;29.10;40.60
28496;DHT22;15710;51.604;7.316;2022-07-04T15:18:36;29.20;40.90
28496;DHT22;15710;51.604;7.316;2022-07-04T15:21:02;29.20;41.60
28496;DHT22;15710;51.604;7.316;2022-07-04T15:23:46;29.00;41.70
28496;DHT22;15710;51.604;7.316;2022-07-04T15:26:31;28.60;42.60
28496;DHT22;15710;51.604;7.316;2022-07-04T15:28:57;28.30;43.80
28496;DHT22;15710;51.604;7.316;2022-07-04T15:31:25;28.10;44.30
28496;DHT22;15710;51.604;7.316;2022-07-04T15:33:51;28.10;44.70
28496;DHT22;15710;51.604;7.316;2022-07-04T15:36:17;28.20;45.10
28496;DHT22;15710;51.604;7.316;2022-07-04T15:38:43;28.20;44.00
28496;DHT22;15710;51.604;7.316;2022-07-04T15:41:09;28.30;43.50
28496;DHT22;15710;51.604;7.316;2022-07-04T15:43:36;28.20;43.10
28496;DHT22;15710;51.604;7.316;2022-07-04T15:46:02;28.30;43.60
28496;DHT22;15710;51.604;7.316;2022-07-04T15:48:28;28.40;43.80
28496;DHT22;15710;51.604;7.316;2022-07-04T15:50:55;28.30;43.70
28496;DHT22;15710;51.604;7.316;2022-07-04T15:53:21;28.00;43.80
28496;DHT22;15710;51.604;7.316;2022-07-04T15:55:47;27.80;44.20
28496;DHT22;15710;51.604;7.316;2022-07-04T15:58:13;27.60;45.40
28496;DHT22;15710;51.604;7.316;2022-07-04T16:00:39;27.40;45.90
28496;DHT22;15710;51.604;7.316;2022-07-04T16:03:06;27.30;46.60
28496;DHT22;15710;51.604;7.316;2022-07-04T16:05:32;27.20;47.20
28496;DHT22;15710;51.604;7.316;2022-07-04T16:07:58;27.30;46.80
28496;DHT22;15710;51.604;7.316;2022-07-04T16:10:24;27.40;46.30
28496;DHT22;15710;51.604;7.316;2022-07-04T16:12:50;27.40;46.80
28496;DHT22;15710;51.604;7.316;2022-07-04T16:15:16;27.30;46.20